Time;durP1;ratioP1;P1;durP2;ratioP2;P2;SDS_P1;SDS_P2;PMS_P1;PMS_P2;Temp;Humidity;BMP_temperature;BMP_pressure;BME280_temperature;BME280_humidity;BME280_pressure;Samples;Min_cycle;Max_cycle;Signal;HPM_P1;HPM_P2
2023/10/08 00:01:21;;;;;;;50.55;15.30;;;;;;;11.86;100.00;101507.31;5058848;28;20036;-74
2023/10/08 00:04:07;;;;;;;56.40;15.13;;;;;;;11.84;100.00;101506.59;5061294;28;20041;-75
2023/10/08 00:06:33;;;;;;;60.83;14.93;;;;;;;11.85;100.00;101499.34;5042129;28;20032;-74
2023/10/08 00:09:07;;;;;;;55.33;15.52;;;;;;;11.78;100.00;101496.50;5075754;28;20028;-74
2023/10/08 00:11:36;;;;;;;62.25;16.13;;;;;;;11.69;100.00;101497.47;5059525;28;20035;-74
2023/10/08 00:14:05;;;;;;;52.38;15.23;;;;;;;11.63;100.00;101501.66;5058405;28;20032;-74
2023/10/08 00:16:33;;;;;;;55.53;16.15;;;;;;;11.59;100.00;101502.16;5042810;28;20036;-74
2023/10/08 00:19:00;;;;;;;48.67;13.32;;;;;;;11.55;100.00;101511.59;5074770;28;20493;-74
2023/10/08 00:21:26;;;;;;;52.33;13.85;;;;;;;11.44;100.00;101500.09;5074941;28;20036;-74
2023/10/08 00:23:52;;;;;;;48.28;14.77;;;;;;;11.52;100.00;101498.44;5074869;28;20475;-74
2023/10/08 00:26:27;;;;;;;52.63;13.88;;;;;;;11.49;100.00;101488.00;5074783;28;20028;-74
2023/10/08 00:29:00;;;;;;;48.53;13.20;;;;;;;11.47;100.00;101495.41;5043400;28;20028;-74
2023/10/08 00:31:30;;;;;;;57.83;14.63;;;;;;;11.41;100.00;101504.97;5057956;28;20040;-74
2023/10/08 00:33:57;;;;;;;48.83;13.43;;;;;;;11.37;100.00;101496.38;5042890;28;20068;-75
2023/10/08 00:36:23;;;;;;;48.13;14.07;;;;;;;11.35;100.00;101489.47;5074393;28;20467;-74
2023/10/08 00:38:58;;;;;;;48.67;13.00;;;;;;;11.29;100.00;101509.81;5058017;28;20036;-74
2023/10/08 00:41:27;;;;;;;43.08;12.55;;;;;;;11.22;100.00;101487.25;5074247;28;20082;-74
2023/10/08 00:43:56;;;;;;;53.95;12.55;;;;;;;11.21;100.00;101510.59;5056739;28;20119;-74
2023/10/08 00:46:30;;;;;;;49.25;13.10;;;;;;;11.32;100.00;101508.63;5057957;28;20032;-74
2023/10/08 00:48:57;;;;;;;49.85;13.90;;;;;;;11.34;100.00;101509.31;5041948;28;20487;-74
2023/10/08 00:51:31;;;;;;;62.13;15.57;;;;;;;11.32;100.00;101511.34;5074278;28;20060;-74
2023/10/08 00:54:17;;;;;;;51.03;13.77;;;;;;;11.23;100.00;101518.53;5058966;28;20478;-74
2023/10/08 00:59:15;;;;;;;44.25;12.30;;;;;;;11.14;100.00;101533.81;5057643;28;20036;-74
2023/10/08 01:01:51;;;;;;;47.13;13.10;;;;;;;11.19;100.00;101534.19;5058011;28;20493;-74
2023/10/08 01:04:17;;;;;;;53.00;14.98;;;;;;;11.17;100.00;101530.81;5058268;28;20055;-74
2023/10/08 01:06:43;;;;;;;46.90;13.45;;;;;;;11.21;100.00;101525.94;5057551;28;20123;-74
2023/10/08 01:09:18;;;;;;;47.05;13.02;;;;;;;11.25;100.00;101537.22;5057197;28;20463;-75
2023/10/08 01:11:49;;;;;;;50.33;14.00;;;;;;;11.21;100.00;101542.91;5058583;28;20040;-74
2023/10/08 01:14:20;;;;;;;51.22;14.10;;;;;;;11.25;100.00;101548.00;5073446;28;20029;-74
2023/10/08 01:16:47;;;;;;;50.40;13.70;;;;;;;11.23;100.00;101550.84;5040975;28;20070;-74
2023/10/08 01:19:19;;;;;;;63.85;15.75;;;;;;;11.20;100.00;101541.25;5040450;28;20048;-74
2023/10/08 01:21:45;;;;;;;48.55;14.30;;;;;;;11.18;100.00;101520.88;5040625;28;20064;-74
2023/10/08 01:24:17;;;;;;;48.90;13.02;;;;;;;11.19;100.00;101528.78;5056965;28;20039;-74
2023/10/08 01:26:45;;;;;;;57.40;15.23;;;;;;;11.27;100.00;101533.34;5057966;28;20085;-74
2023/10/08 01:29:21;;;;;;;50.83;14.90;;;;;;;11.25;100.00;101531.84;5057046;28;20463;-74
2023/10/08 01:31:48;;;;;;;59.22;13.93;;;;;;;11.23;100.00;101549.00;5041416;28;20089;-74
2023/10/08 01:34:16;;;;;;;42.13;13.75;;;;;;;11.26;100.00;101526.28;5040497;28;20040;-74
2023/10/08 01:36:45;;;;;;;52.55;14.95;;;;;;;11.28;100.00;101518.91;5056898;28;20563;-74
2023/10/08 01:39:16;;;;;;;47.85;14.48;;;;;;;11.22;100.00;101515.00;5056829;28;20078;-75
2023/10/08 01:41:46;;;;;;;50.45;13.20;;;;;;;11.16;100.00;101501.34;5057336;28;20044;-74
2023/10/08 01:44:13;;;;;;;44.40;13.85;;;;;;;11.08;100.00;101487.84;5056981;28;20101;-74
2023/10/08 01:46:40;;;;;;;46.35;12.88;;;;;;;11.03;100.00;101498.25;5056713;28;20029;-75
2023/10/08 01:49:14;;;;;;;50.80;13.85;;;;;;;11.09;100.00;101503.84;5056650;28;20024;-74
2023/10/08 01:51:47;;;;;;;45.65;12.32;;;;;;;11.14;100.00;101497.94;5072741;28;20044;-74
2023/10/08 01:54:17;;;;;;;44.33;12.55;;;;;;;11.07;100.00;101484.31;5057257;28;20045;-74
2023/10/08 01:56:43;;;;;;;51.08;13.65;;;;;;;10.97;100.00;101465.59;5072803;28;20036;-74
2023/10/08 01:59:14;;;;;;;46.08;13.48;;;;;;;10.90;100.00;101456.50;5039587;28;20368;-74
2023/10/08 02:01:45;;;;;;;51.65;14.43;;;;;;;10.83;100.00;101460.81;5039723;28;20127;-74
2023/10/08 02:04:12;;;;;;;54.25;13.43;;;;;;;10.79;100.00;101462.13;5056291;28;20028;-74
2023/10/08 02:06:41;;;;;;;59.15;15.18;;;;;;;10.80;100.00;101466.53;5056466;28;20036;-74
2023/10/08 02:09:10;;;;;;;43.08;12.77;;;;;;;10.75;100.00;101466.16;5056494;28;20062;-74
2023/10/08 02:11:50;;;;;;;52.72;13.23;;;;;;;10.75;100.00;101474.25;5072836;28;20024;-76
2023/10/08 02:14:17;;;;;;;42.85;12.45;;;;;;;10.69;100.00;101482.91;5072875;28;20021;-74
2023/10/08 02:16:44;;;;;;;47.58;13.55;;;;;;;10.70;100.00;101480.09;5039577;28;20028;-74
2023/10/08 02:19:10;;;;;;;54.08;12.35;;;;;;;10.82;100.00;101494.09;5072622;28;20068;-74
2023/10/08 02:21:40;;;;;;;46.42;13.75;;;;;;;10.93;100.00;101490.31;5056215;28;20036;-74
2023/10/08 02:24:08;;;;;;;47.38;13.88;;;;;;;11.05;100.00;101488.16;5039820;28;20051;-74
2023/10/08 02:26:37;;;;;;;56.72;14.75;;;;;;;11.07;100.00;101492.38;5039454;28;20372;-74
2023/10/08 02:29:10;;;;;;;51.47;14.65;;;;;;;11.04;100.00;101486.50;5056059;28;20036;-74
2023/10/08 02:31:39;;;;;;;49.97;13.73;;;;;;;11.07;100.00;101495.06;5056815;28;20090;-74
2023/10/08 02:34:08;;;;;;;49.55;13.95;;;;;;;10.95;100.00;101480.22;5039506;28;20474;-74
2023/10/08 02:36:37;;;;;;;49.58;14.30;;;;;;;10.93;100.00;101501.06;5073424;28;20032;-74
2023/10/08 02:39:08;;;;;;;45.90;13.25;;;;;;;10.85;100.00;101498.31;5055912;28;20029;-74
2023/10/08 02:41:33;;;;;;;49.55;13.95;;;;;;;10.75;100.00;101510.03;5055864;28;20103;-75
2023/10/08 02:43:59;;;;;;;48.00;12.73;;;;;;;10.84;100.00;101518.16;5072556;28;20033;-74
2023/10/08 02:46:26;;;;;;;47.33;13.43;;;;;;;10.95;100.00;101520.56;5055397;28;20411;-74
2023/10/08 02:48:52;;;;;;;51.38;13.55;;;;;;;10.92;100.00;101508.28;5071996;28;20036;-74
2023/10/08 02:51:20;;;;;;;53.15;14.15;;;;;;;10.89;100.00;101513.97;5055738;28;20028;-75
2023/10/08 02:53:46;;;;;;;51.38;13.13;;;;;;;10.88;100.00;101506.94;5039799;28;20032;-74
2023/10/08 02:56:15;;;;;;;47.58;14.30;;;;;;;10.91;100.00;101509.28;5055841;28;20048;-74
2023/10/08 02:58:40;;;;;;;45.05;13.88;;;;;;;10.86;100.00;101524.22;5071965;28;20107;-75
2023/10/08 03:01:12;;;;;;;48.92;13.55;;;;;;;10.84;100.00;101529.75;5072302;28;20446;-74
2023/10/08 03:03:46;;;;;;;43.65;13.50;;;;;;;10.83;100.00;101530.78;5056503;28;20475;-75
2023/10/08 03:06:14;;;;;;;54.85;13.30;;;;;;;10.81;100.00;101534.63;5056796;28;20042;-75
2023/10/08 03:08:41;;;;;;;51.75;14.32;;;;;;;10.79;100.00;101530.22;5059649;28;20028;-74
2023/10/08 03:11:16;;;;;;;50.72;13.02;;;;;;;10.78;100.00;101528.56;5075960;28;20036;-74
2023/10/08 03:13:53;;;;;;;46.53;13.20;;;;;;;10.77;100.00;101531.41;5060190;28;20082;-74
2023/10/08 03:16:27;;;;;;;50.38;13.60;;;;;;;10.71;100.00;101522.09;5060563;28;20075;-74
2023/10/08 03:18:57;;;;;;;49.00;12.82;;;;;;;10.70;100.00;101515.06;5077613;28;20032;-74
2023/10/08 03:24:12;;;;;;;47.50;13.90;;;;;;;10.64;100.00;101486.09;5075930;28;20126;-74
2023/10/08 03:26:39;;;;;;;48.95;12.98;;;;;;;10.60;100.00;101481.19;5060220;28;20029;-75
2023/10/08 03:29:14;;;;;;;52.30;14.02;;;;;;;10.56;100.00;101476.13;5059363;28;20034;-74
2023/10/08 03:31:50;;;;;;;60.55;14.95;;;;;;;10.64;100.00;101471.78;5044157;28;20032;-74
2023/10/08 03:34:18;;;;;;;57.67;16.00;;;;;;;10.72;100.00;101471.88;5045154;28;20036;-74
2023/10/08 03:36:44;;;;;;;54.15;14.88;;;;;;;10.72;100.00;101467.31;5042592;28;20074;-74
2023/10/08 03:39:14;;;;;;;56.42;14.52;;;;;;;10.69;100.00;101456.91;5042608;28;20028;-75
2023/10/08 03:41:40;;;;;;;58.58;14.13;;;;;;;10.65;100.00;101462.75;5042766;28;20028;-75
2023/10/08 03:44:16;;;;;;;48.40;14.90;;;;;;;10.63;100.00;101470.13;5042502;28;20124;-75
2023/10/08 03:46:42;;;;;;;67.60;15.23;;;;;;;10.71;100.00;101472.84;5060054;28;20064;-75
2023/10/08 03:51:52;;;;;;;54.47;14.07;;;;;;;10.64;100.00;101479.84;5075727;28;20045;-75
2023/10/08 03:54:33;;;;;;;50.55;13.75;;;;;;;10.63;100.00;101476.34;5027097;28;20065;-75
2023/10/08 03:57:00;;;;;;;54.50;13.73;;;;;;;10.54;100.00;101470.06;5060291;28;20036;-75
2023/10/08 03:59:33;;;;;;;52.08;13.50;;;;;;;10.61;100.00;101480.19;5075261;28;20028;-75
2023/10/08 04:04:56;;;;;;;48.50;13.15;;;;;;;10.64;100.00;101478.03;5075185;28;20039;-75
2023/10/08 04:12:52;;;;;;;57.40;14.30;;;;;;;10.81;100.00;101484.34;5052161;28;20068;-75
2023/10/08 04:15:19;;;;;;;50.05;13.65;;;;;;;10.87;100.00;101485.56;5058347;28;20472;-75
2023/10/08 04:17:45;;;;;;;54.42;14.43;;;;;;;10.88;100.00;101487.25;5058164;28;20550;-75
2023/10/08 04:20:33;;;;;;;52.10;13.57;;;;;;;10.90;100.00;101491.47;5058392;28;20116;-75
2023/10/08 04:23:04;;;;;;;62.72;14.55;;;;;;;10.84;100.00;101497.47;5043918;28;20044;-74
2023/10/08 04:25:31;;;;;;;42.05;12.27;;;;;;;10.89;100.00;101507.75;5058265;28;20040;-75
2023/10/08 04:27:58;;;;;;;45.22;13.55;;;;;;;10.94;100.00;101508.13;5041697;28;20471;-75
2023/10/08 04:30:33;;;;;;;45.40;12.85;;;;;;;10.94;100.00;101495.50;5057641;28;20442;-75
2023/10/08 04:33:06;;;;;;;43.30;13.38;;;;;;;10.90;100.00;101502.25;5058964;28;20033;-75
2023/10/08 04:35:36;;;;;;;55.05;14.57;;;;;;;10.86;100.00;101495.47;5041893;28;20387;-75
2023/10/08 04:38:08;;;;;;;45.75;13.10;;;;;;;10.81;100.00;101492.41;5025456;28;20098;-74
2023/10/08 04:40:48;;;;;;;61.35;13.95;;;;;;;10.87;100.00;101497.16;5058274;28;20467;-74
2023/10/08 04:43:37;;;;;;;56.08;14.18;;;;;;;10.87;100.00;101489.06;5057992;28;20485;-74
2023/10/08 04:46:39;;;;;;;52.67;13.88;;;;;;;10.89;100.00;101492.47;5041588;28;20344;-75
2023/10/08 04:49:09;;;;;;;52.20;13.00;;;;;;;10.87;100.00;101494.47;5073742;28;20041;-74
2023/10/08 04:51:43;;;;;;;51.67;13.82;;;;;;;10.87;100.00;101489.06;5041930;28;20021;-74
2023/10/08 04:54:22;;;;;;;51.30;12.95;;;;;;;10.81;100.00;101484.34;5058799;28;20530;-75
2023/10/08 04:57:01;;;;;;;48.25;13.60;;;;;;;10.80;100.00;101501.50;5075385;28;20028;-75
2023/10/08 04:59:33;;;;;;;50.85;13.50;;;;;;;10.77;100.00;101486.53;5057776;28;20098;-74
2023/10/08 05:02:13;;;;;;;46.03;13.05;;;;;;;10.78;100.00;101482.81;5057855;28;20033;-75
2023/10/08 05:10:10;;;;;;;47.58;13.43;;;;;;;10.82;100.00;101494.09;5073690;28;20097;-75
2023/10/08 05:12:46;;;;;;;54.42;12.65;;;;;;;10.81;100.00;101505.88;5042763;28;20052;-75
2023/10/08 05:20:40;;;;;;;43.65;12.68;;;;;;;10.90;100.00;101523.75;5073916;28;20029;-75
2023/10/08 05:25:58;;;;;;;47.95;12.88;;;;;;;10.99;100.00;101516.56;5060014;28;20034;-75
2023/10/08 05:28:29;;;;;;;50.03;13.13;;;;;;;11.05;100.00;101542.84;5057086;28;20067;-75
2023/10/08 05:31:11;;;;;;;50.40;14.20;;;;;;;11.13;100.00;101544.72;5072692;28;20458;-76
2023/10/08 05:34:14;;;;;;;48.97;13.00;;;;;;;11.17;100.00;101541.56;5073127;28;20028;-75
2023/10/08 05:36:49;;;;;;;57.78;13.38;;;;;;;11.19;100.00;101534.19;5061122;28;20043;-75
2023/10/08 05:42:05;;;;;;;56.30;13.02;;;;;;;11.17;100.00;101549.63;5057498;28;20032;-75
2023/10/08 05:44:39;;;;;;;62.30;13.85;;;;;;;11.14;100.00;101562.56;5044277;28;20387;-75
2023/10/08 05:50:38;;;;;;;51.80;12.95;;;;;;;11.09;100.00;101575.69;5073047;28;20035;-74
2023/10/08 05:52:50;;;;;;;42.70;13.02;;;;;;;11.01;100.00;101576.47;5059515;28;20044;-75
2023/10/08 05:55:25;;;;;;;48.55;12.88;;;;;;;10.92;100.00;101572.84;5057847;28;20123;-75
2023/10/08 05:58:24;;;;;;;48.40;12.63;;;;;;;10.91;100.00;101578.41;5040860;28;20044;-75
2023/10/08 06:03:32;;;;;;;52.90;14.82;;;;;;;11.24;100.00;101609.06;5039472;28;20037;-75
2023/10/08 06:08:52;;;;;;;65.15;14.93;;;;;;;11.60;100.00;101623.22;5072680;28;20128;-75
2023/10/08 06:14:28;;;;;;;74.03;17.75;;;;;;;11.83;100.00;101601.94;5073618;28;20447;-76
2023/10/08 06:17:13;;;;;;;83.47;17.75;;;;;;;12.01;100.00;101598.28;5072743;28;20033;-75
2023/10/08 06:19:39;;;;;;;84.90;18.75;;;;;;;12.07;100.00;101573.38;5042089;28;20029;-75
2023/10/08 06:22:05;;;;;;;103.95;20.80;;;;;;;12.13;100.00;101585.38;5072701;28;20024;-75
2023/10/08 06:24:33;;;;;;;95.13;19.95;;;;;;;12.16;100.00;101575.06;5072410;28;20368;-75
2023/10/08 06:27:04;;;;;;;97.13;19.55;;;;;;;12.16;100.00;101569.69;5056256;28;20017;-75
2023/10/08 06:29:33;;;;;;;82.15;19.45;;;;;;;12.14;100.00;101566.31;5056729;28;20060;-75
2023/10/08 06:32:02;;;;;;;81.25;17.85;;;;;;;12.16;100.00;101563.47;5056215;28;20111;-75
2023/10/08 06:34:28;;;;;;;87.78;18.98;;;;;;;12.12;100.00;101552.19;5040075;28;20036;-75
2023/10/08 06:36:57;;;;;;;84.85;19.15;;;;;;;12.16;100.00;101560.75;5039372;28;20079;-75
2023/10/08 06:39:33;;;;;;;82.25;18.42;;;;;;;12.17;100.00;101547.13;5039506;28;20105;-75
2023/10/08 06:42:00;;;;;;;75.35;17.25;;;;;;;12.22;100.00;101552.84;5037650;28;20084;-75
2023/10/08 06:44:27;;;;;;;81.55;18.48;;;;;;;12.24;100.00;101533.81;5055160;28;20475;-76
2023/10/08 06:46:54;;;;;;;75.53;18.20;;;;;;;12.24;100.00;101515.75;5038399;28;20437;-75
2023/10/08 06:49:23;;;;;;;75.57;17.92;;;;;;;12.24;100.00;101488.81;5071750;28;20033;-74
2023/10/08 06:51:50;;;;;;;79.53;17.75;;;;;;;12.28;100.00;101511.72;5039494;28;20028;-75
2023/10/08 06:54:17;;;;;;;84.15;18.63;;;;;;;12.29;100.00;101485.59;5039018;28;20033;-76
2023/10/08 06:56:46;;;;;;;88.95;21.17;;;;;;;12.30;100.00;101490.84;5039207;28;20483;-75
2023/10/08 06:59:13;;;;;;;86.93;18.27;;;;;;;12.36;100.00;101485.75;5039092;28;20047;-75
2023/10/08 07:01:40;;;;;;;80.07;16.75;;;;;;;12.31;100.00;101486.28;5072252;28;20044;-75
2023/10/08 07:04:06;;;;;;;76.18;16.77;;;;;;;12.20;100.00;101476.69;5022664;28;20036;-76
2023/10/08 07:06:37;;;;;;;71.43;17.08;;;;;;;12.14;100.00;101482.72;5038423;28;20491;-76
2023/10/08 07:09:06;;;;;;;86.85;18.77;;;;;;;12.23;100.00;101489.00;5039068;28;20505;-75
2023/10/08 07:11:35;;;;;;;84.93;18.58;;;;;;;12.21;100.00;101481.06;5039263;28;20048;-75
2023/10/08 07:14:01;;;;;;;100.22;17.65;;;;;;;12.23;100.00;101481.72;5055809;28;20040;-75
2023/10/08 07:16:28;;;;;;;90.05;17.35;;;;;;;12.21;100.00;101469.44;5055577;28;20033;-75
2023/10/08 07:19:01;;;;;;;84.28;18.08;;;;;;;12.27;100.00;101474.97;5054995;28;20406;-76
2023/10/08 07:21:29;;;;;;;88.45;18.40;;;;;;;12.36;100.00;101469.56;5055485;28;20094;-75
2023/10/08 07:23:56;;;;;;;82.72;17.10;;;;;;;12.40;100.00;101470.94;5039180;28;20056;-76
2023/10/08 07:26:26;;;;;;;73.80;17.30;;;;;;;12.43;100.00;101466.03;5039006;28;20029;-75
2023/10/08 07:28:53;;;;;;;84.20;18.05;;;;;;;12.51;100.00;101475.97;5039064;28;20032;-75
2023/10/08 07:31:20;;;;;;;85.30;17.17;;;;;;;12.57;100.00;101472.59;5055030;28;20040;-76
2023/10/08 07:33:56;;;;;;;87.97;18.73;;;;;;;12.65;100.00;101469.03;5038830;28;20028;-76
2023/10/08 07:36:30;;;;;;;83.18;18.02;;;;;;;12.74;100.00;101462.59;5039021;28;20135;-75
2023/10/08 07:38:56;;;;;;;90.47;19.00;;;;;;;12.80;100.00;101458.38;5038694;28;20116;-76
2023/10/08 07:41:22;;;;;;;82.10;17.25;;;;;;;12.89;100.00;101478.94;5054905;28;20440;-75
2023/10/08 07:43:58;;;;;;;81.63;18.70;;;;;;;12.94;100.00;101498.16;5071715;28;20123;-76
2023/10/08 07:46:28;;;;;;;65.57;17.35;;;;;;;13.02;100.00;101511.63;5039396;28;20040;-75
2023/10/08 07:48:54;;;;;;;64.72;16.35;;;;;;;13.06;100.00;101507.56;5055203;28;20479;-75
2023/10/08 07:51:23;;;;;;;60.40;15.95;;;;;;;13.08;100.00;101521.72;5038517;28;20036;-75
2023/10/08 07:53:54;;;;;;;67.97;15.75;;;;;;;13.12;100.00;101538.41;5074136;28;20487;-74
2023/10/08 07:56:20;;;;;;;60.67;17.20;;;;;;;13.16;100.00;101532.50;5042318;28;20044;-74
2023/10/08 07:58:47;;;;;;;61.58;15.73;;;;;;;13.20;100.00;101530.28;5074607;28;20032;-74
2023/10/08 08:01:14;;;;;;;56.42;16.35;;;;;;;13.27;100.00;101527.75;5058709;28;20044;-75
2023/10/08 08:03:45;;;;;;;64.28;16.02;;;;;;;13.31;100.00;101515.59;5042101;28;20032;-75
2023/10/08 08:06:26;;;;;;;57.70;16.60;;;;;;;13.41;100.00;101500.00;5059148;28;20105;-75
2023/10/08 08:08:52;;;;;;;60.53;15.35;;;;;;;13.56;100.00;101503.66;5058414;28;20033;-75
2023/10/08 08:11:17;;;;;;;59.70;15.30;;;;;;;13.75;100.00;101512.31;5076188;28;20035;-75
2023/10/08 08:13:47;;;;;;;59.33;15.13;;;;;;;13.94;100.00;101516.44;5074740;28;20029;-75
2023/10/08 08:16:19;;;;;;;61.05;16.42;;;;;;;14.28;100.00;101543.06;5041129;28;20037;-74
2023/10/08 08:18:49;;;;;;;53.63;16.00;;;;;;;14.61;100.00;101529.28;5041333;28;20036;-73
2023/10/08 08:21:23;;;;;;;46.20;14.30;;;;;;;14.97;100.00;101524.00;5041241;28;20487;-72
2023/10/08 08:24:07;;;;;;;44.25;15.98;;;;;;;15.18;100.00;101543.06;5072092;28;20039;-73
2023/10/08 08:26:39;;;;;;;34.28;15.10;;;;;;;15.31;100.00;101519.88;5076127;28;20509;-72
2023/10/08 08:29:08;;;;;;;31.92;11.68;;;;;;;15.33;100.00;101540.34;5042305;28;20067;-73
2023/10/08 08:31:35;;;;;;;29.55;12.70;;;;;;;15.17;100.00;101522.41;5058683;28;20466;-72
2023/10/08 08:34:13;;;;;;;30.33;12.50;;;;;;;15.24;100.00;101551.47;5041559;28;20028;-73
2023/10/08 08:36:46;;;;;;;22.48;9.57;;;;;;;15.36;100.00;101586.03;5059798;28;20483;-73
2023/10/08 08:39:28;;;;;;;20.52;9.80;;;;;;;16.01;100.00;101597.13;5058909;28;20041;-73
2023/10/08 08:41:59;;;;;;;24.70;10.57;;;;;;;16.39;100.00;101580.59;5074708;28;20024;-73
2023/10/08 08:44:29;;;;;;;20.42;10.00;;;;;;;16.71;100.00;101593.63;5041363;28;20303;-73
2023/10/08 08:46:58;;;;;;;21.98;10.98;;;;;;;16.32;100.00;101610.38;5057926;28;20108;-72
2023/10/08 08:49:24;;;;;;;22.98;10.00;;;;;;;16.16;100.00;101603.31;5057350;28;20032;-73
2023/10/08 08:51:53;;;;;;;18.73;9.75;;;;;;;15.93;100.00;101573.66;5057711;28;20029;-72
2023/10/08 08:54:20;;;;;;;17.08;9.70;;;;;;;16.02;100.00;101591.47;5041370;28;20040;-73
2023/10/08 08:56:46;;;;;;;20.88;10.13;;;;;;;15.84;100.00;101601.91;5073881;28;20467;-72
2023/10/08 08:59:12;;;;;;;17.45;9.65;;;;;;;15.97;100.00;101593.09;5024837;28;20536;-72
2023/10/08 09:01:39;;;;;;;17.73;9.35;;;;;;;16.23;100.00;101592.56;5057539;28;20179;-72
2023/10/08 09:04:05;;;;;;;17.10;8.98;;;;;;;16.32;100.00;101606.81;5039755;28;20395;-73
2023/10/08 09:06:37;;;;;;;19.60;9.00;;;;;;;16.45;100.00;101617.81;5057632;28;20136;-72
2023/10/08 09:09:22;;;;;;;15.27;8.90;;;;;;;16.47;100.00;101591.31;5057666;28;20041;-74
2023/10/08 09:11:51;;;;;;;12.48;8.05;;;;;;;16.44;100.00;101616.97;5043135;28;20039;-73
2023/10/08 09:14:27;;;;;;;17.80;8.82;;;;;;;16.33;100.00;101616.66;5073914;28;20035;-73
2023/10/08 09:16:56;;;;;;;16.52;8.48;;;;;;;16.45;100.00;101617.81;5057674;28;20117;-73
2023/10/08 09:19:24;;;;;;;15.95;8.38;;;;;;;16.66;100.00;101644.97;5057270;28;20037;-73
2023/10/08 09:22:04;;;;;;;14.40;7.88;;;;;;;16.60;100.00;101640.31;5057590;28;20028;-73
2023/10/08 09:24:38;;;;;;;14.18;8.38;;;;;;;16.57;100.00;101639.88;5073299;28;20032;-72
2023/10/08 09:27:04;;;;;;;12.00;7.22;;;;;;;16.53;100.00;101644.00;5040389;28;20032;-74
2023/10/08 09:29:31;;;;;;;15.32;7.50;;;;;;;16.57;100.00;101654.28;5056807;28;20107;-74
2023/10/08 09:31:57;;;;;;;13.95;7.65;;;;;;;16.47;100.00;101646.44;5023270;28;20036;-73
2023/10/08 09:34:35;;;;;;;11.18;7.60;;;;;;;16.58;100.00;101653.25;5054133;28;20055;-76
2023/10/08 09:37:01;;;;;;;13.25;7.07;;;;;;;16.61;100.00;101680.00;5054996;28;20090;-73
2023/10/08 09:39:30;;;;;;;12.75;6.32;;;;;;;16.63;100.00;101669.78;5054152;28;20040;-74
2023/10/08 09:42:02;;;;;;;10.93;7.03;;;;;;;16.59;100.00;101692.09;5038077;28;20036;-74
2023/10/08 09:44:30;;;;;;;9.50;6.32;;;;;;;16.54;100.00;101684.53;5070063;28;20028;-73
2023/10/08 09:47:12;;;;;;;11.38;6.20;;;;;;;16.62;100.00;101678.97;5054246;28;20025;-75
2023/10/08 09:49:48;;;;;;;10.00;6.05;;;;;;;16.72;100.00;101678.63;5055941;28;20611;-74
2023/10/08 09:52:16;;;;;;;9.95;5.85;;;;;;;16.81;100.00;101673.97;5040786;28;20534;-75
2023/10/08 09:54:47;;;;;;;8.65;5.78;;;;;;;17.10;100.00;101683.84;5039483;28;20028;-74
2023/10/08 09:57:12;;;;;;;12.35;6.07;;;;;;;17.45;100.00;101665.69;5056132;28;20067;-75
2023/10/08 09:59:40;;;;;;;13.85;9.35;;;;;;;17.68;100.00;101667.31;5072630;28;20109;-74
2023/10/08 10:02:10;;;;;;;10.43;6.00;;;;;;;17.61;100.00;101678.13;5056495;28;20032;-75
2023/10/08 10:04:36;;;;;;;8.23;5.40;;;;;;;17.75;100.00;101676.31;5055971;28;20456;-73
2023/10/08 10:07:12;;;;;;;10.82;6.75;;;;;;;17.73;100.00;101664.78;5039555;28;20052;-73
2023/10/08 10:09:38;;;;;;;9.18;5.60;;;;;;;17.91;100.00;101658.84;5039656;28;20036;-74
2023/10/08 10:12:09;;;;;;;11.73;9.32;;;;;;;17.96;100.00;101654.47;5039553;28;20047;-74
2023/10/08 10:14:48;;;;;;;10.77;5.78;;;;;;;18.04;100.00;101663.53;5056354;28;20056;-75
2023/10/08 10:17:20;;;;;;;11.13;7.35;;;;;;;18.13;100.00;101657.72;5055398;28;20090;-74
2023/10/08 10:20:13;;;;;;;8.88;5.38;;;;;;;18.35;100.00;101676.63;5072404;28;20040;-75
2023/10/08 10:22:45;;;;;;;8.90;5.82;;;;;;;18.28;100.00;101671.13;5072505;28;20135;-74
2023/10/08 10:25:19;;;;;;;9.00;5.28;;;;;;;18.58;100.00;101674.38;5072606;28;20033;-76
2023/10/08 10:27:53;;;;;;;6.15;4.78;;;;;;;19.22;100.00;101663.97;5039894;28;20047;-74
2023/10/08 10:30:19;;;;;;;10.25;6.90;;;;;;;19.74;100.00;101663.06;5073540;28;20067;-74
2023/10/08 10:32:46;;;;;;;7.82;5.90;;;;;;;20.41;100.00;101660.03;5055598;28;20495;-74
2023/10/08 10:35:17;;;;;;;7.15;4.80;;;;;;;20.90;100.00;101663.91;5071431;28;20029;-73
2023/10/08 10:37:51;;;;;;;12.23;5.60;;;;;;;21.20;100.00;101679.66;5055620;28;20395;-74
2023/10/08 10:40:39;;;;;;;5.88;4.10;;;;;;;20.63;100.00;101669.56;5056546;28;20074;-73
2023/10/08 10:43:09;;;;;;;5.95;4.22;;;;;;;20.47;100.00;101669.22;5071599;28;20028;-74
2023/10/08 10:45:36;;;;;;;6.30;4.47;;;;;;;20.68;100.00;101674.38;5055854;28;20032;-74
2023/10/08 10:48:11;;;;;;;8.88;6.45;;;;;;;21.42;100.00;101674.63;5073135;28;20115;-74
2023/10/08 10:53:27;;;;;;;6.07;4.20;;;;;;;22.29;100.00;101661.63;5072424;28;20098;-74
2023/10/08 10:56:03;;;;;;;5.63;3.92;;;;;;;22.12;100.00;101663.28;5055905;28;20040;-74
2023/10/08 10:58:38;;;;;;;9.90;6.50;;;;;;;21.40;100.00;101666.66;5072188;28;20036;-73
2023/10/08 11:01:21;;;;;;;6.35;4.72;;;;;;;20.97;100.00;101659.22;5056060;28;20059;-75
2023/10/08 11:03:51;;;;;;;5.55;3.97;;;;;;;20.67;100.00;101667.25;5057562;28;20085;-72
2023/10/08 11:06:23;;;;;;;6.30;4.03;;;;;;;20.46;100.00;101660.22;5055909;28;20082;-73
2023/10/08 11:08:50;;;;;;;7.50;3.95;;;;;;;20.13;100.00;101666.66;5039544;28;20028;-73
2023/10/08 11:11:27;;;;;;;6.57;4.10;;;;;;;20.09;100.00;101659.97;5055067;28;20386;-73
2023/10/08 11:14:00;;;;;;;8.05;5.53;;;;;;;20.28;100.00;101660.94;5023098;28;20033;-74
2023/10/08 11:16:26;;;;;;;8.52;4.05;;;;;;;20.41;100.00;101652.66;5055674;28;20028;-73
2023/10/08 11:19:00;;;;;;;6.82;4.15;;;;;;;20.70;100.00;101658.59;5072240;28;20048;-74
2023/10/08 11:21:31;;;;;;;7.20;4.13;;;;;;;21.12;100.00;101664.38;5072122;28;20062;-73
2023/10/08 11:23:58;;;;;;;8.82;4.03;;;;;;;21.63;100.00;101654.22;5072129;28;20028;-74
2023/10/08 11:26:32;;;;;;;6.05;4.15;;;;;;;21.79;100.00;101659.06;5055479;28;20059;-73
2023/10/08 11:29:00;;;;;;;7.07;3.92;;;;;;;21.65;100.00;101641.97;5058884;28;20043;-73
2023/10/08 11:31:28;;;;;;;5.90;3.67;;;;;;;21.71;100.00;101645.69;5075519;28;20098;-74
2023/10/08 11:33:59;;;;;;;5.25;4.05;;;;;;;22.06;100.00;101645.06;5075402;28;20032;-74
2023/10/08 11:36:27;;;;;;;5.80;4.18;;;;;;;22.14;100.00;101642.81;5042657;28;20060;-74
2023/10/08 11:39:07;;;;;;;6.63;4.10;;;;;;;22.01;100.00;101636.69;5042898;28;20071;-73
2023/10/08 11:41:49;;;;;;;6.43;3.88;;;;;;;21.89;100.00;101642.94;5075507;28;20071;-74
2023/10/08 11:44:19;;;;;;;6.60;3.90;;;;;;;22.02;100.00;101638.38;5044644;28;20047;-74
2023/10/08 11:46:45;;;;;;;4.88;3.60;;;;;;;22.12;100.00;101638.63;5059394;28;20033;-73
2023/10/08 11:49:25;;;;;;;6.03;3.80;;;;;;;21.98;100.00;101632.50;5058777;28;20033;-73
2023/10/08 11:51:52;;;;;;;5.65;3.45;;;;;;;21.78;100.00;101626.44;5044357;28;20086;-73
2023/10/08 11:54:20;;;;;;;7.97;4.00;;;;;;;21.61;100.00;101632.53;5025795;28;20093;-72
2023/10/08 11:56:47;;;;;;;5.50;3.80;;;;;;;21.68;100.00;101625.09;5058698;28;20066;-74
2023/10/08 11:59:12;;;;;;;6.78;3.65;;;;;;;21.82;100.00;101622.19;5058689;28;20089;-74
2023/10/08 12:01:42;;;;;;;6.90;3.70;;;;;;;21.89;100.00;101633.91;5058304;28;20025;-74
2023/10/08 12:04:18;;;;;;;6.45;3.75;;;;;;;21.94;100.00;101623.09;5058688;28;20037;-74
2023/10/08 12:06:46;;;;;;;6.82;3.90;;;;;;;22.06;100.00;101628.63;5042964;28;20078;-73
2023/10/08 12:09:15;;;;;;;5.95;3.72;;;;;;;22.19;100.00;101628.47;5058763;28;20100;-74